Time;durP1;ratioP1;P1;durP2;ratioP2;P2;SDS_P1;SDS_P2;PMS_P1;PMS_P2;Temp;Humidity;BMP_temperature;BMP_pressure;BME280_temperature;BME280_humidity;BME280_pressure;Samples;Min_cycle;Max_cycle;Signal;HPM_P1;HPM_P2
2024/01/27 00:00:01;;;;;;;2.70;2.40;;;;;;;;;;5110915;28;20200;-77
2024/01/27 00:02:27;;;;;;;2.33;2.13;;;;;;;;;;5110984;28;20286;-77
2024/01/27 00:04:57;;;;;;;2.00;1.90;;;;;;;;;;5111000;28;20203;-77
2024/01/27 00:07:25;;;;;;;2.50;2.30;;;;;;;;;;5111400;28;20424;-77
2024/01/27 00:09:53;;;;;;;4.00;2.23;;;;;;;;;;5111321;28;20203;-77
2024/01/27 00:12:20;;;;;;;3.33;2.20;;;;;;;;;;5110922;28;20731;-77
2024/01/27 00:14:47;;;;;;;2.47;2.27;;;;;;;;;;5110878;28;20203;-77
2024/01/27 00:17:14;;;;;;;4.37;2.80;;;;;;;;;;5110577;28;20204;-77
2024/01/27 00:19:41;;;;;;;3.17;2.50;;;;;;;;;;5110953;28;20276;-78
2024/01/27 00:22:08;;;;;;;3.63;2.43;;;;;;;;;;5110968;28;20203;-77
2024/01/27 00:24:35;;;;;;;3.20;2.17;;;;;;;;;;5111057;28;20206;-77
2024/01/27 00:27:04;;;;;;;4.67;2.80;;;;;;;;;;5110894;28;20268;-77
2024/01/27 00:29:30;;;;;;;3.77;3.50;;;;;;;;;;5110611;28;20220;-77
2024/01/27 00:32:00;;;;;;;3.20;2.83;;;;;;;;;;5111144;28;20204;-77
2024/01/27 00:34:27;;;;;;;2.83;2.63;;;;;;;;;;5110395;28;20195;-77
2024/01/27 00:36:53;;;;;;;4.07;2.73;;;;;;;;;;5111061;28;20252;-76
2024/01/27 00:39:21;;;;;;;4.63;2.53;;;;;;;;;;5110680;28;20191;-77
2024/01/27 00:41:48;;;;;;;3.00;2.73;;;;;;;;;;5110660;28;20623;-77
2024/01/27 00:44:16;;;;;;;2.43;2.23;;;;;;;;;;5111497;28;20203;-77
2024/01/27 00:46:43;;;;;;;4.43;2.40;;;;;;;;;;5110418;28;20216;-77
2024/01/27 00:49:10;;;;;;;2.17;1.93;;;;;;;;;;5111018;28;20192;-77
2024/01/27 00:51:36;;;;;;;2.97;2.40;;;;;;;;;;5110924;28;20710;-77
2024/01/27 00:54:03;;;;;;;2.27;2.00;;;;;;;;;;5110695;28;20203;-77
2024/01/27 00:56:30;;;;;;;5.77;2.50;;;;;;;;;;5110696;28;20207;-77
2024/01/27 00:58:57;;;;;;;2.63;2.43;;;;;;;;;;5110542;28;20203;-77
2024/01/27 01:01:25;;;;;;;2.80;2.37;;;;;;;;;;5110213;28;20249;-77
2024/01/27 01:03:53;;;;;;;3.37;2.30;;;;;;;;;;5110297;28;20203;-77
2024/01/27 01:06:19;;;;;;;6.27;2.63;;;;;;;;;;5110351;28;20203;-77
2024/01/27 01:08:49;;;;;;;2.47;2.27;;;;;;;;;;5110257;28;20612;-77
2024/01/27 01:11:16;;;;;;;9.37;2.83;;;;;;;;;;5112550;28;20227;-77
2024/01/27 01:13:42;;;;;;;3.30;2.50;;;;;;;;;;5114199;28;20562;-77
2024/01/27 01:16:09;;;;;;;1.97;1.87;;;;;;;;;;5114360;28;20202;-76
2024/01/27 01:18:37;;;;;;;4.03;2.50;;;;;;;;;;5114385;28;20596;-77
2024/01/27 01:21:04;;;;;;;6.23;2.63;;;;;;;;;;5113638;28;20203;-77
2024/01/27 01:23:31;;;;;;;2.33;2.00;;;;;;;;;;5114024;28;20199;-76
2024/01/27 01:25:58;;;;;;;3.37;3.10;;;;;;;;;;5101030;28;20191;-77
2024/01/27 01:28:24;;;;;;;3.50;2.53;;;;;;;;;;5113476;28;20230;-78
2024/01/27 01:30:51;;;;;;;2.43;2.23;;;;;;;;;;5114547;28;20288;-77
2024/01/27 01:33:18;;;;;;;3.30;2.50;;;;;;;;;;5113512;28;20199;-77
2024/01/27 01:35:47;;;;;;;4.43;2.37;;;;;;;;;;5113942;28;20207;-77
2024/01/27 01:38:13;;;;;;;2.80;2.53;;;;;;;;;;5114237;28;20219;-77
2024/01/27 01:40:40;;;;;;;3.03;2.23;;;;;;;;;;5114183;28;20638;-77
2024/01/27 01:43:11;;;;;;;2.73;2.53;;;;;;;;;;5113719;28;20206;-77
2024/01/27 01:45:37;;;;;;;2.80;2.50;;;;;;;;;;5114428;28;20200;-77
2024/01/27 01:48:05;;;;;;;2.80;2.60;;;;;;;;;;5113166;28;20617;-77
2024/01/27 01:50:32;;;;;;;2.43;2.23;;;;;;;;;;5114195;28;20211;-77
2024/01/27 01:53:00;;;;;;;3.40;2.43;;;;;;;;;;5113828;28;20192;-77
2024/01/27 01:55:27;;;;;;;3.67;2.60;;;;;;;;;;5114181;28;20261;-77
2024/01/27 01:58:01;;;;;;;2.97;2.50;;;;;;;;;;5113269;28;20627;-78
2024/01/27 02:00:28;;;;;;;2.40;2.27;;;;;;;;;;5113508;28;20600;-77
2024/01/27 02:02:56;;;;;;;3.57;3.00;;;;;;;;;;5113696;28;20202;-77
2024/01/27 02:05:22;;;;;;;2.40;2.20;;;;;;;;;;5113482;28;20208;-77
2024/01/27 02:07:49;;;;;;;3.50;2.83;;;;;;;;;;5113379;28;20620;-77
2024/01/27 02:10:19;;;;;;;2.50;2.30;;;;;;;;;;5113152;28;20228;-77
2024/01/27 02:12:46;;;;;;;3.73;2.40;;;;;;;;;;5112855;28;21073;-77
2024/01/27 02:15:13;;;;;;;2.03;1.90;;;;;;;;;;5113768;28;20278;-80
2024/01/27 02:17:40;;;;;;;6.20;2.70;;;;;;;;;;5113253;28;20238;-78
2024/01/27 02:20:08;;;;;;;2.50;2.27;;;;;;;;;;5113092;28;20218;-78
2024/01/27 02:22:35;;;;;;;4.37;2.80;;;;;;;;;;5111445;28;20203;-78
2024/01/27 02:25:04;;;;;;;3.23;2.43;;;;;;;;;;5112804;28;20206;-77
2024/01/27 02:27:30;;;;;;;4.27;2.47;;;;;;;;;;5112434;28;20717;-78
2024/01/27 02:29:57;;;;;;;3.57;2.60;;;;;;;;;;5112456;28;20748;-77
2024/01/27 02:32:24;;;;;;;3.00;2.40;;;;;;;;;;5112902;28;20199;-78
2024/01/27 02:34:51;;;;;;;3.83;1.97;;;;;;;;;;5113017;28;20203;-78
2024/01/27 02:37:19;;;;;;;2.07;1.97;;;;;;;;;;5113020;28;20203;-78
2024/01/27 02:39:45;;;;;;;3.80;2.23;;;;;;;;;;5112244;28;20204;-79
2024/01/27 02:42:13;;;;;;;2.30;2.00;;;;;;;;;;5099627;28;20200;-78
2024/01/27 02:44:40;;;;;;;1.93;1.83;;;;;;;;;;5112395;28;20199;-78
2024/01/27 02:47:07;;;;;;;2.00;1.90;;;;;;;;;;5112460;28;20207;-78
2024/01/27 02:49:34;;;;;;;2.00;1.80;;;;;;;;;;5112678;28;20203;-79
2024/01/27 02:52:01;;;;;;;2.93;2.20;;;;;;;;;;5112751;28;20721;-78
2024/01/27 02:54:28;;;;;;;2.47;1.50;;;;;;;;;;5112311;28;20211;-79
2024/01/27 02:56:56;;;;;;;6.67;6.03;;;;;;;;;;5112475;28;20227;-79
2024/01/27 02:59:24;;;;;;;4.07;3.00;;;;;;;;;;5112532;28;20627;-79
2024/01/27 03:01:51;;;;;;;2.43;2.10;;;;;;;;;;5112356;28;20203;-79
2024/01/27 03:04:18;;;;;;;2.77;2.57;;;;;;;;;;5112406;28;20207;-79
2024/01/27 03:06:45;;;;;;;2.47;2.27;;;;;;;;;;5112268;28;20204;-81
2024/01/27 03:09:11;;;;;;;3.23;1.90;;;;;;;;;;5111930;28;20305;-79
2024/01/27 03:11:38;;;;;;;3.97;2.20;;;;;;;;;;5112370;28;20210;-79
2024/01/27 03:14:05;;;;;;;3.00;1.90;;;;;;;;;;5112048;28;20204;-78
2024/01/27 03:16:34;;;;;;;1.80;1.70;;;;;;;;;;5112377;28;20206;-79
2024/01/27 03:19:00;;;;;;;2.30;2.10;;;;;;;;;;5112082;28;20302;-79
2024/01/27 03:21:28;;;;;;;2.57;1.70;;;;;;;;;;5111880;28;20570;-79
2024/01/27 03:23:56;;;;;;;1.60;1.50;;;;;;;;;;5111213;28;20589;-78
2024/01/27 03:26:22;;;;;;;2.90;1.93;;;;;;;;;;5112307;28;20215;-78
2024/01/27 03:28:49;;;;;;;3.80;2.27;;;;;;;;;;5109541;28;20659;-79
2024/01/27 03:31:16;;;;;;;3.47;2.30;;;;;;;;;;5110295;28;20207;-81
2024/01/27 03:33:44;;;;;;;1.80;1.70;;;;;;;;;;5107759;28;20210;-79
2024/01/27 03:36:12;;;;;;;3.53;2.33;;;;;;;;;;5109445;28;20200;-79
2024/01/27 03:38:39;;;;;;;1.90;1.80;;;;;;;;;;5106571;28;20287;-79
2024/01/27 03:41:06;;;;;;;1.77;1.67;;;;;;;;;;5109364;28;20297;-79
2024/01/27 03:43:32;;;;;;;2.07;1.80;;;;;;;;;;5111105;28;20701;-79
2024/01/27 03:45:59;;;;;;;1.70;1.60;;;;;;;;;;5111449;28;20250;-79
2024/01/27 03:48:26;;;;;;;2.03;1.90;;;;;;;;;;5111379;28;20774;-77
2024/01/27 03:50:55;;;;;;;2.20;1.70;;;;;;;;;;5098069;28;20269;-79
2024/01/27 03:53:21;;;;;;;1.83;1.73;;;;;;;;;;5111085;28;20203;-76
2024/01/27 03:55:48;;;;;;;2.50;2.30;;;;;;;;;;5110536;28;20208;-77
2024/01/27 03:58:15;;;;;;;3.33;2.97;;;;;;;;;;5111689;28;20199;-76
2024/01/27 04:00:42;;;;;;;3.10;2.90;;;;;;;;;;5111855;28;20730;-77
2024/01/27 04:03:09;;;;;;;3.87;2.40;;;;;;;;;;5111531;28;20203;-77
2024/01/27 04:05:36;;;;;;;3.83;2.50;;;;;;;;;;5110611;28;20611;-77
2024/01/27 04:08:06;;;;;;;2.00;1.90;;;;;;;;;;5110766;28;20222;-77
2024/01/27 04:10:33;;;;;;;3.07;2.10;;;;;;;;;;5110920;28;20275;-77
2024/01/27 04:12:59;;;;;;;3.03;2.57;;;;;;;;;;5110929;28;20238;-77
2024/01/27 04:15:26;;;;;;;3.50;1.90;;;;;;;;;;5110814;28;20215;-77
2024/01/27 04:17:54;;;;;;;2.07;1.87;;;;;;;;;;5110669;28;20264;-77
2024/01/27 04:20:21;;;;;;;2.40;2.20;;;;;;;;;;5111233;28;20199;-77
2024/01/27 04:22:48;;;;;;;2.53;2.03;;;;;;;;;;5110907;28;20207;-78
2024/01/27 04:25:16;;;;;;;3.87;2.40;;;;;;;;;;5110161;28;20207;-77
2024/01/27 04:27:43;;;;;;;2.70;2.37;;;;;;;;;;5110010;28;20208;-77
2024/01/27 04:30:12;;;;;;;7.60;6.03;;;;;;;;;;5111070;28;20223;-77
2024/01/27 04:32:39;;;;;;;10.30;9.30;;;;;;;;;;5110975;28;20188;-77
2024/01/27 04:35:09;;;;;;;8.60;7.80;;;;;;;;;;5110958;28;20208;-77
2024/01/27 04:37:36;;;;;;;6.67;5.80;;;;;;;;;;5111250;28;20206;-77
2024/01/27 04:40:02;;;;;;;2.40;2.23;;;;;;;;;;5110618;28;20203;-77
2024/01/27 04:42:30;;;;;;;2.30;1.97;;;;;;;;;;5111186;28;20199;-76
2024/01/27 04:45:00;;;;;;;117.67;61.77;;;;;;;;;;5110742;28;20199;-77
2024/01/27 04:47:27;;;;;;;48.37;29.63;;;;;;;;;;5115198;28;20203;-77
2024/01/27 04:49:54;;;;;;;6.13;5.33;;;;;;;;;;5114457;28;20234;-77
2024/01/27 04:52:22;;;;;;;3.17;2.60;;;;;;;;;;5115300;28;20204;-77
2024/01/27 04:54:48;;;;;;;3.67;2.07;;;;;;;;;;5114798;28;20282;-79
2024/01/27 04:57:15;;;;;;;4.03;2.03;;;;;;;;;;5114661;28;20206;-76
2024/01/27 04:59:43;;;;;;;4.70;2.23;;;;;;;;;;5114246;28;20203;-77
2024/01/27 05:02:10;;;;;;;3.03;1.70;;;;;;;;;;5114947;28;20237;-77
2024/01/27 05:04:38;;;;;;;3.37;1.77;;;;;;;;;;5114810;28;20628;-77
2024/01/27 05:07:05;;;;;;;5.60;3.20;;;;;;;;;;5114770;28;20741;-77
2024/01/27 05:09:32;;;;;;;6.97;5.20;;;;;;;;;;5114096;28;20223;-77
2024/01/27 05:12:00;;;;;;;82.47;38.07;;;;;;;;;;5114727;28;20211;-77
2024/01/27 05:14:27;;;;;;;57.67;34.23;;;;;;;;;;5113973;28;20204;-77
2024/01/27 05:16:56;;;;;;;20.40;13.57;;;;;;;;;;5114614;28;20696;-77
2024/01/27 05:19:22;;;;;;;21.67;13.47;;;;;;;;;;5101042;28;20279;-77
2024/01/27 05:21:49;;;;;;;15.20;11.17;;;;;;;;;;5114052;28;20249;-78
2024/01/27 05:24:16;;;;;;;6.43;4.40;;;;;;;;;;5114137;28;20214;-77
2024/01/27 05:26:43;;;;;;;4.87;3.40;;;;;;;;;;5114039;28;20206;-77
2024/01/27 05:29:10;;;;;;;3.20;3.00;;;;;;;;;;5113992;28;20241;-77
2024/01/27 05:31:37;;;;;;;10.23;6.33;;;;;;;;;;5114237;28;20202;-78
2024/01/27 05:34:05;;;;;;;13.20;9.23;;;;;;;;;;5100592;28;20733;-77
2024/01/27 05:36:32;;;;;;;7.27;6.53;;;;;;;;;;5113484;28;20207;-77
2024/01/27 05:38:59;;;;;;;9.07;5.53;;;;;;;;;;5114151;28;20210;-77
2024/01/27 05:41:29;;;;;;;7.47;4.53;;;;;;;;;;5114054;28;20204;-78
2024/01/27 05:43:56;;;;;;;6.33;4.00;;;;;;;;;;5113666;28;20237;-77
2024/01/27 05:46:24;;;;;;;4.43;3.67;;;;;;;;;;5113317;28;20272;-78
2024/01/27 05:48:53;;;;;;;3.30;2.33;;;;;;;;;;5113946;28;20231;-77
2024/01/27 05:51:23;;;;;;;2.90;2.60;;;;;;;;;;5113308;28;20196;-78
2024/01/27 05:53:49;;;;;;;2.73;2.30;;;;;;;;;;5113506;28;20677;-81
2024/01/27 05:56:17;;;;;;;3.13;2.37;;;;;;;;;;5113498;28;20207;-77
2024/01/27 05:58:44;;;;;;;3.33;2.60;;;;;;;;;;5113641;28;20640;-77
2024/01/27 06:01:11;;;;;;;3.17;2.80;;;;;;;;;;5113682;28;20704;-77
2024/01/27 06:03:37;;;;;;;4.47;2.70;;;;;;;;;;5113334;28;20629;-77
2024/01/27 06:06:04;;;;;;;3.50;3.20;;;;;;;;;;5113449;28;20200;-77
2024/01/27 06:08:32;;;;;;;14.70;6.37;;;;;;;;;;5113543;28;20647;-77
2024/01/27 06:10:59;;;;;;;12.37;8.47;;;;;;;;;;5113418;28;20207;-78
2024/01/27 06:13:26;;;;;;;10.90;6.37;;;;;;;;;;5113437;28;20564;-78
2024/01/27 06:15:53;;;;;;;8.57;5.30;;;;;;;;;;5112735;28;20196;-78
2024/01/27 06:18:19;;;;;;;4.60;4.20;;;;;;;;;;5113011;28;20211;-77
2024/01/27 06:20:46;;;;;;;4.50;3.93;;;;;;;;;;5113596;28;20204;-77
2024/01/27 06:23:13;;;;;;;4.57;3.30;;;;;;;;;;5113147;28;20206;-77
2024/01/27 06:25:41;;;;;;;8.47;3.43;;;;;;;;;;5108808;28;20201;-77
2024/01/27 06:28:08;;;;;;;5.30;3.10;;;;;;;;;;5104454;28;20214;-78
2024/01/27 06:30:35;;;;;;;12.27;8.07;;;;;;;;;;5113220;28;20229;-78
2024/01/27 06:33:02;;;;;;;18.30;12.43;;;;;;;;;;5112695;28;20206;-78
2024/01/27 06:35:29;;;;;;;138.23;59.33;;;;;;;;;;5112654;28;20210;-77
2024/01/27 06:37:58;;;;;;;101.40;44.27;;;;;;;;;;5112406;28;20639;-77
2024/01/27 06:40:25;;;;;;;15.20;9.00;;;;;;;;;;5112956;28;20207;-78
2024/01/27 06:42:53;;;;;;;12.13;8.43;;;;;;;;;;5112804;28;20645;-78
2024/01/27 06:45:20;;;;;;;9.80;6.53;;;;;;;;;;5105928;28;20199;-77
2024/01/27 06:47:47;;;;;;;5.70;4.20;;;;;;;;;;5107657;28;20199;-78
2024/01/27 06:50:15;;;;;;;4.30;2.63;;;;;;;;;;5112342;28;20223;-77
2024/01/27 06:52:41;;;;;;;3.07;2.40;;;;;;;;;;5111883;28;20248;-77
2024/01/27 06:55:10;;;;;;;4.47;2.50;;;;;;;;;;5112619;28;20199;-76
2024/01/27 06:57:37;;;;;;;3.00;2.60;;;;;;;;;;5111943;28;20655;-77
2024/01/27 07:00:07;;;;;;;3.70;2.77;;;;;;;;;;5111828;28;20195;-77
2024/01/27 07:02:34;;;;;;;3.27;2.53;;;;;;;;;;5112225;28;20200;-78
2024/01/27 07:05:01;;;;;;;3.60;3.30;;;;;;;;;;5111910;28;20203;-78
2024/01/27 07:07:29;;;;;;;12.70;4.57;;;;;;;;;;5112356;28;20229;-79
2024/01/27 07:09:58;;;;;;;6.83;4.60;;;;;;;;;;5111849;28;20235;-79
2024/01/27 07:12:25;;;;;;;8.53;5.67;;;;;;;;;;5112057;28;20199;-79
2024/01/27 07:14:52;;;;;;;10.17;6.20;;;;;;;;;;5111972;28;20206;-78
2024/01/27 07:17:20;;;;;;;9.17;5.93;;;;;;;;;;5111927;28;20200;-77
2024/01/27 07:19:47;;;;;;;8.03;6.23;;;;;;;;;;5112010;28;20208;-78
2024/01/27 07:22:13;;;;;;;10.87;6.37;;;;;;;;;;5111798;28;20267;-78
2024/01/27 07:24:41;;;;;;;26.60;14.33;;;;;;;;;;5111224;28;20741;-78
2024/01/27 07:27:08;;;;;;;17.43;10.10;;;;;;;;;;5111508;28;20207;-78
2024/01/27 07:29:35;;;;;;;19.10;9.53;;;;;;;;;;5111684;28;20242;-78
2024/01/27 07:32:01;;;;;;;7.13;4.60;;;;;;;;;;5111111;28;20202;-78
2024/01/27 07:34:30;;;;;;;3.80;2.83;;;;;;;;;;5111711;28;20261;-77
2024/01/27 07:36:59;;;;;;;3.43;2.43;;;;;;;;;;5110541;28;20206;-78
2024/01/27 07:39:26;;;;;;;2.93;2.73;;;;;;;;;;5111134;28;20203;-77
2024/01/27 07:41:56;;;;;;;4.17;2.87;;;;;;;;;;5111793;28;20192;-77
2024/01/27 07:44:23;;;;;;;3.00;2.33;;;;;;;;;;5111819;28;20207;-77
2024/01/27 07:46:50;;;;;;;14.27;9.63;;;;;;;;;;5108108;28;20204;-76
2024/01/27 07:49:18;;;;;;;12.37;9.67;;;;;;;;;;5097903;28;20284;-76
2024/01/27 07:51:46;;;;;;;9.70;6.90;;;;;;;;;;5110926;28;20242;-75
2024/01/27 07:54:13;;;;;;;11.83;8.00;;;;;;;;;;5111233;28;20279;-75
2024/01/27 07:56:41;;;;;;;9.87;8.60;;;;;;;;;;5111013;28;20214;-74
2024/01/27 07:59:13;;;;;;;15.20;8.97;;;;;;;;;;5111010;28;20203;-77
2024/01/27 08:01:40;;;;;;;20.13;13.20;;;;;;;;;;5111026;28;20207;-77
2024/01/27 08:04:07;;;;;;;15.70;10.40;;;;;;;;;;5111204;28;20593;-77
2024/01/27 08:06:35;;;;;;;26.00;16.93;;;;;;;;;;5110730;28;20669;-77
2024/01/27 08:09:04;;;;;;;21.70;14.33;;;;;;;;;;5110661;28;20250;-77
2024/01/27 08:11:31;;;;;;;24.47;15.40;;;;;;;;;;5110668;28;20195;-77
2024/01/27 08:13:57;;;;;;;37.30;26.00;;;;;;;;;;5110883;28;20252;-77
2024/01/27 08:16:24;;;;;;;26.93;19.03;;;;;;;;;;5111189;28;20221;-77
2024/01/27 08:18:51;;;;;;;11.23;9.43;;;;;;;;;;5110506;28;20690;-77
2024/01/27 08:21:18;;;;;;;43.97;26.40;;;;;;;;;;5110610;28;20688;-76
2024/01/27 08:23:45;;;;;;;35.10;21.17;;;;;;;;;;5111070;28;20200;-76
2024/01/27 08:26:13;;;;;;;21.20;16.47;;;;;;;;;;5110827;28;20200;-75
2024/01/27 08:28:40;;;;;;;46.73;27.20;;;;;;;;;;5110649;28;20284;-75
2024/01/27 08:31:07;;;;;;;31.53;19.03;;;;;;;;;;5110858;28;20243;-75
2024/01/27 08:33:34;;;;;;;15.13;10.03;;;;;;;;;;5110920;28;20210;-75
2024/01/27 08:36:01;;;;;;;7.70;5.97;;;;;;;;;;5110810;28;20218;-76
2024/01/27 08:38:28;;;;;;;8.80;5.67;;;;;;;;;;5110266;28;20195;-76
2024/01/27 08:40:58;;;;;;;7.13;4.03;;;;;;;;;;5110762;28;20199;-75
2024/01/27 08:43:26;;;;;;;3.80;3.27;;;;;;;;;;5097329;28;20200;-75
2024/01/27 08:45:54;;;;;;;4.23;2.67;;;;;;;;;;5110840;28;20199;-75
2024/01/27 08:48:21;;;;;;;4.33;3.80;;;;;;;;;;5100687;28;20195;-76
2024/01/27 08:50:48;;;;;;;6.03;2.97;;;;;;;;;;5110407;28;20223;-76
2024/01/27 08:53:14;;;;;;;4.20;3.40;;;;;;;;;;5110199;28;20253;-75
2024/01/27 08:55:41;;;;;;;11.37;6.27;;;;;;;;;;5109765;28;20214;-76
2024/01/27 08:58:08;;;;;;;16.13;7.90;;;;;;;;;;5109954;28;20195;-75
2024/01/27 09:00:36;;;;;;;5.00;4.30;;;;;;;;;;5110955;28;20200;-76
2024/01/27 09:03:03;;;;;;;7.57;3.10;;;;;;;;;;5110164;28;20680;-80
2024/01/27 09:05:30;;;;;;;3.60;2.57;;;;;;;;;;5110867;28;20195;-76
2024/01/27 09:07:59;;;;;;;4.83;3.00;;;;;;;;;;5110168;28;20206;-74
2024/01/27 09:10:25;;;;;;;3.40;2.70;;;;;;;;;;5111008;28;20227;-75
2024/01/27 09:12:52;;;;;;;3.33;2.40;;;;;;;;;;5110518;28;20196;-75
2024/01/27 09:15:19;;;;;;;3.93;2.57;;;;;;;;;;5110416;28;20203;-74
2024/01/27 09:17:48;;;;;;;4.07;2.93;;;;;;;;;;5110262;28;20211;-75
2024/01/27 09:20:15;;;;;;;3.77;2.83;;;;;;;;;;5110134;28;20264;-76
2024/01/27 09:22:44;;;;;;;3.27;2.87;;;;;;;;;;5109880;28;20203;-75
2024/01/27 09:25:11;;;;;;;3.10;2.80;;;;;;;;;;5096910;28;20231;-75
2024/01/27 09:27:38;;;;;;;4.40;2.90;;;;;;;;;;5096992;28;20711;-75
2024/01/27 09:30:06;;;;;;;3.87;3.57;;;;;;;;;;5110123;28;20235;-74
2024/01/27 09:32:33;;;;;;;5.97;5.17;;;;;;;;;;5112554;28;20196;-75
2024/01/27 09:35:02;;;;;;;6.20;5.63;;;;;;;;;;5113687;28;20406;-75
2024/01/27 09:37:28;;;;;;;5.23;4.73;;;;;;;;;;5114196;28;20195;-76
2024/01/27 09:40:00;;;;;;;5.93;4.97;;;;;;;;;;5114080;28;20214;-74
2024/01/27 09:42:27;;;;;;;5.63;5.07;;;;;;;;;;5114677;28;20287;-74
2024/01/27 09:44:58;;;;;;;7.53;6.73;;;;;;;;;;5114118;28;20202;-74
2024/01/27 09:47:25;;;;;;;6.83;5.93;;;;;;;;;;5113699;28;20202;-75
2024/01/27 09:49:52;;;;;;;4.57;3.77;;;;;;;;;;5113680;28;20219;-74
2024/01/27 09:52:21;;;;;;;5.53;3.50;;;;;;;;;;5113964;28;20574;-74
2024/01/27 09:54:48;;;;;;;5.30;3.27;;;;;;;;;;5113305;28;20206;-74
2024/01/27 09:57:15;;;;;;;2.77;2.33;;;;;;;;;;5101060;28;20199;-74
2024/01/27 09:59:44;;;;;;;3.87;2.73;;;;;;;;;;5113430;28;20230;-74
2024/01/27 10:02:12;;;;;;;1.80;1.70;;;;;;;;;;5113571;28;20199;-74
2024/01/27 10:04:40;;;;;;;4.33;2.00;;;;;;;;;;5113546;28;20207;-74
2024/01/27 10:07:06;;;;;;;2.13;1.90;;;;;;;;;;5111064;28;20616;-75
2024/01/27 10:09:35;;;;;;;2.40;2.17;;;;;;;;;;5110596;28;20207;-75
2024/01/27 10:12:02;;;;;;;1.70;1.60;;;;;;;;;;5110412;28;20209;-75
2024/01/27 10:14:39;;;;;;;2.13;1.93;;;;;;;;;;5110570;28;20204;-76
2024/01/27 10:17:06;;;;;;;2.93;2.67;;;;;;;;;;5098979;28;20202;-75
2024/01/27 10:19:33;;;;;;;3.83;2.40;;;;;;;;;;5111479;28;21892;-74
2024/01/27 10:22:02;;;;;;;2.40;2.00;;;;;;;;;;5112005;28;20203;-75
2024/01/27 10:24:28;;;;;;;4.13;1.90;;;;;;;;;;5112669;28;20196;-74
2024/01/27 10:27:01;;;;;;;1.97;1.87;;;;;;;;;;5112950;28;20207;-74
2024/01/27 10:29:28;;;;;;;1.67;1.57;;;;;;;;;;5113159;28;20230;-74
2024/01/27 10:32:07;;;;;;;1.80;1.70;;;;;;;;;;5112905;28;20207;-74
2024/01/27 10:34:34;;;;;;;3.87;2.50;;;;;;;;;;5112574;28;20207;-74
2024/01/27 10:37:01;;;;;;;6.50;3.90;;;;;;;;;;5112213;28;20652;-74
2024/01/27 10:39:28;;;;;;;2.53;2.23;;;;;;;;;;5113282;28;20204;-74
2024/01/27 10:42:02;;;;;;;2.57;2.37;;;;;;;;;;5112923;28;20206;-74
2024/01/27 10:44:30;;;;;;;2.27;1.83;;;;;;;;;;5111587;28;20206;-74
2024/01/27 10:46:58;;;;;;;4.00;3.23;;;;;;;;;;5112494;28;20203;-74
2024/01/27 10:49:25;;;;;;;3.20;2.90;;;;;;;;;;5112499;28;20589;-75
2024/01/27 10:51:58;;;;;;;3.27;2.50;;;;;;;;;;5092710;28;20224;-75
2024/01/27 10:54:26;;;;;;;4.60;3.33;;;;;;;;;;5106180;28;20204;-74
2024/01/27 10:56:58;;;;;;;4.57;3.00;;;;;;;;;;5112629;28;20257;-74
2024/01/27 10:59:28;;;;;;;3.27;2.47;;;;;;;;;;5112491;28;20286;-74
2024/01/27 11:01:57;;;;;;;4.13;3.60;;;;;;;;;;5112308;28;20716;-74
2024/01/27 11:04:25;;;;;;;2.47;2.27;;;;;;;;;;5109920;28;20211;-86
2024/01/27 11:06:52;;;;;;;2.27;2.17;;;;;;;;;;5101311;28;20212;-75
2024/01/27 11:09:20;;;;;;;5.30;2.23;;;;;;;;;;5111456;28;20289;-74
2024/01/27 11:11:48;;;;;;;3.90;2.80;;;;;;;;;;5112640;28;20224;-75
2024/01/27 11:14:15;;;;;;;4.77;2.77;;;;;;;;;;5111491;28;20204;-75
2024/01/27 11:16:46;;;;;;;4.00;2.90;;;;;;;;;;5109632;28;20191;-75
2024/01/27 11:19:14;;;;;;;3.80;2.63;;;;;;;;;;5101518;28;20226;-74
2024/01/27 11:21:42;;;;;;;5.03;3.00;;;;;;;;;;5112257;28;20200;-74
2024/01/27 11:24:16;;;;;;;2.93;2.10;;;;;;;;;;5111901;28;20206;-75
2024/01/27 11:26:43;;;;;;;3.30;2.53;;;;;;;;;;5111788;28;20203;-75
2024/01/27 11:29:19;;;;;;;2.40;2.20;;;;;;;;;;5112202;28;20244;-75
2024/01/27 11:31:46;;;;;;;2.30;2.03;;;;;;;;;;5111563;28;20700;-75
2024/01/27 11:34:16;;;;;;;2.17;1.97;;;;;;;;;;5111751;28;20195;-75
2024/01/27 11:36:44;;;;;;;2.07;1.87;;;;;;;;;;5112023;28;20203;-75
2024/01/27 11:39:24;;;;;;;2.00;1.87;;;;;;;;;;5111738;28;20196;-75
2024/01/27 11:41:51;;;;;;;1.60;1.50;;;;;;;;;;5111514;28;20225;-75
2024/01/27 11:44:19;;;;;;;4.27;1.87;;;;;;;;;;5110865;28;20230;-75
2024/01/27 11:46:46;;;;;;;2.20;1.87;;;;;;;;;;5111408;28;20200;-74
2024/01/27 11:49:16;;;;;;;3.07;1.90;;;;;;;;;;5111551;28;20290;-75
2024/01/27 11:51:43;;;;;;;2.20;1.60;;;;;;;;;;5111472;28;20223;-74
2024/01/27 11:54:10;;;;;;;1.70;1.57;;;;;;;;;;5111199;28;20199;-74
2024/01/27 11:56:36;;;;;;;1.60;1.50;;;;;;;;;;5110901;28;20210;-74
2024/01/27 11:59:03;;;;;;;4.50;2.47;;;;;;;;;;5111833;28;20198;-75
2024/01/27 12:01:30;;;;;;;1.87;1.70;;;;;;;;;;5111391;28;20620;-74
2024/01/27 12:03:57;;;;;;;1.93;1.50;;;;;;;;;;5111294;28;20199;-74
2024/01/27 12:06:25;;;;;;;2.23;1.43;;;;;;;;;;5111486;28;20203;-74
2024/01/27 12:08:57;;;;;;;1.50;1.40;;;;;;;;;;5110641;28;20685;-75
2024/01/27 12:11:25;;;;;;;1.53;1.43;;;;;;;;;;5111268;28;20231;-74
2024/01/27 12:13:51;;;;;;;2.10;1.97;;;;;;;;;;5111146;28;20286;-74
2024/01/27 12:16:18;;;;;;;2.10;1.80;;;;;;;;;;5111073;28;20662;-74
2024/01/27 12:18:45;;;;;;;2.40;2.20;;;;;;;;;;5110722;28;20207;-74
2024/01/27 12:21:12;;;;;;;3.10;2.00;;;;;;;;;;5110972;28;20231;-74
2024/01/27 12:23:51;;;;;;;2.10;1.90;;;;;;;;;;5110439;28;20206;-74
2024/01/27 12:26:18;;;;;;;1.77;1.60;;;;;;;;;;5099965;28;20253;-73
2024/01/27 12:28:48;;;;;;;1.43;1.30;;;;;;;;;;5104547;28;20207;-73
2024/01/27 12:31:16;;;;;;;1.40;1.30;;;;;;;;;;5111539;28;20224;-73
2024/01/27 12:33:49;;;;;;;1.60;1.50;;;;;;;;;;5110723;28;20286;-73
2024/01/27 12:36:20;;;;;;;1.43;1.13;;;;;;;;;;5110879;28;20207;-73
2024/01/27 12:38:53;;;;;;;1.00;1.00;;;;;;;;;;5109987;28;20286;-73
2024/01/27 12:41:20;;;;;;;0.93;0.93;;;;;;;;;;5110919;28;20682;-73
2024/01/27 12:43:49;;;;;;;2.37;2.07;;;;;;;;;;5110265;28;20735;-73
2024/01/27 12:46:16;;;;;;;0.93;0.93;;;;;;;;;;5111182;28;20210;-73
2024/01/27 12:48:43;;;;;;;2.77;1.10;;;;;;;;;;5110184;28;20209;-73
2024/01/27 12:51:10;;;;;;;0.90;0.90;;;;;;;;;;5110713;28;20260;-73
2024/01/27 12:53:38;;;;;;;1.63;1.50;;;;;;;;;;5109930;28;20195;-74
2024/01/27 12:56:07;;;;;;;2.10;1.73;;;;;;;;;;5110708;28;20205;-74
2024/01/27 12:58:35;;;;;;;1.77;1.67;;;;;;;;;;5110308;28;20203;-73
2024/01/27 13:01:02;;;;;;;1.20;1.20;;;;;;;;;;5110705;28;20204;-73
2024/01/27 13:03:29;;;;;;;0.90;0.90;;;;;;;;;;5110025;28;20661;-76
2024/01/27 13:05:57;;;;;;;1.37;1.27;;;;;;;;;;5110405;28;20279;-76
2024/01/27 13:08:24;;;;;;;1.60;1.50;;;;;;;;;;5114153;28;20207;-76
2024/01/27 13:10:51;;;;;;;1.30;1.20;;;;;;;;;;5114492;28;20650;-75
2024/01/27 13:13:19;;;;;;;1.03;1.00;;;;;;;;;;5093940;28;20199;-76
2024/01/27 13:15:46;;;;;;;2.83;1.50;;;;;;;;;;5107959;28;20200;-76
2024/01/27 13:18:13;;;;;;;2.43;2.23;;;;;;;;;;5114100;28;20657;-75
2024/01/27 13:20:40;;;;;;;2.40;1.80;;;;;;;;;;5113969;28;20734;-76
2024/01/27 13:23:07;;;;;;;1.53;1.30;;;;;;;;;;5114252;28;20211;-76
2024/01/27 13:25:35;;;;;;;1.47;1.30;;;;;;;;;;5110966;28;20598;-76
2024/01/27 13:28:02;;;;;;;2.33;2.03;;;;;;;;;;5104808;28;20211;-75
2024/01/27 13:30:31;;;;;;;2.40;1.60;;;;;;;;;;5113804;28;20680;-75
2024/01/27 13:32:57;;;;;;;1.97;1.80;;;;;;;;;;5113841;28;20830;-76
2024/01/27 13:35:25;;;;;;;2.20;2.00;;;;;;;;;;5113781;28;20204;-75
2024/01/27 13:37:51;;;;;;;1.90;1.70;;;;;;;;;;5113990;28;20608;-75
2024/01/27 13:40:18;;;;;;;2.10;1.53;;;;;;;;;;5114358;28;20199;-76
2024/01/27 13:42:45;;;;;;;1.70;1.60;;;;;;;;;;5113857;28;20203;-75
2024/01/27 13:45:12;;;;;;;1.87;1.77;;;;;;;;;;5113922;28;20203;-76
2024/01/27 13:47:40;;;;;;;1.30;1.03;;;;;;;;;;5114087;28;20252;-75
2024/01/27 13:50:07;;;;;;;1.20;1.20;;;;;;;;;;5113609;28;20229;-76
2024/01/27 13:52:34;;;;;;;1.60;1.50;;;;;;;;;;5113680;28;20223;-77
2024/01/27 13:55:01;;;;;;;2.73;1.20;;;;;;;;;;5113317;28;20662;-75
2024/01/27 13:57:29;;;;;;;1.43;1.33;;;;;;;;;;5114048;28;20227;-75
2024/01/27 13:59:58;;;;;;;1.33;1.23;;;;;;;;;;5113240;28;20211;-76
2024/01/27 14:02:25;;;;;;;2.00;1.87;;;;;;;;;;5113809;28;20207;-76
2024/01/27 14:04:53;;;;;;;3.67;1.23;;;;;;;;;;5113047;28;20661;-73
2024/01/27 14:07:20;;;;;;;1.97;1.87;;;;;;;;;;5113165;28;20203;-74
2024/01/27 14:09:47;;;;;;;2.37;2.17;;;;;;;;;;5113430;28;20206;-73
2024/01/27 14:12:15;;;;;;;1.60;1.50;;;;;;;;;;5112949;28;20257;-74
2024/01/27 14:14:41;;;;;;;2.00;1.90;;;;;;;;;;5112789;28;20260;-74
2024/01/27 14:17:08;;;;;;;4.73;3.10;;;;;;;;;;5112881;28;20203;-73
2024/01/27 14:19:36;;;;;;;2.30;2.10;;;;;;;;;;5113249;28;20674;-74
2024/01/27 14:22:06;;;;;;;1.70;1.60;;;;;;;;;;5113230;28;20264;-74
2024/01/27 14:24:33;;;;;;;1.80;1.70;;;;;;;;;;5113104;28;20567;-74
2024/01/27 14:27:00;;;;;;;1.50;1.40;;;;;;;;;;5113479;28;20200;-74
2024/01/27 14:29:27;;;;;;;1.47;1.37;;;;;;;;;;5113128;28;20315;-74
2024/01/27 14:31:54;;;;;;;1.27;1.27;;;;;;;;;;5109558;28;20224;-74
2024/01/27 14:34:20;;;;;;;1.47;1.37;;;;;;;;;;5112577;28;20200;-73
2024/01/27 14:36:48;;;;;;;1.40;1.30;;;;;;;;;;5113247;28;20195;-74
2024/01/27 14:39:17;;;;;;;1.90;1.70;;;;;;;;;;5102735;28;20278;-74
2024/01/27 14:41:44;;;;;;;1.43;1.33;;;;;;;;;;5113179;28;20207;-76